sensor_id;sensor_type;location;lat;lon;timestamp;temperature;humidity
11989;DHT22;6054;50.966;7.094;2023-04-29T00:01:03;21.80;51.00
11989;DHT22;6054;50.966;7.094;2023-04-29T00:03:30;21.70;50.60
11989;DHT22;6054;50.966;7.094;2023-04-29T00:05:57;21.70;50.80
11989;DHT22;6054;50.966;7.094;2023-04-29T00:08:24;21.70;51.00
11989;DHT22;6054;50.966;7.094;2023-04-29T00:10:51;21.70;50.50
11989;DHT22;6054;50.966;7.094;2023-04-29T00:13:18;21.60;50.50
11989;DHT22;6054;50.966;7.094;2023-04-29T00:15:45;21.60;50.30
11989;DHT22;6054;50.966;7.094;2023-04-29T00:18:13;21.60;50.10
11989;DHT22;6054;50.966;7.094;2023-04-29T00:20:40;21.60;50.10
11989;DHT22;6054;50.966;7.094;2023-04-29T00:23:08;21.60;49.80
11989;DHT22;6054;50.966;7.094;2023-04-29T00:25:34;21.60;49.40
11989;DHT22;6054;50.966;7.094;2023-04-29T00:28:03;21.60;49.60
11989;DHT22;6054;50.966;7.094;2023-04-29T00:30:30;21.60;49.60
11989;DHT22;6054;50.966;7.094;2023-04-29T00:32:57;21.60;49.40
11989;DHT22;6054;50.966;7.094;2023-04-29T00:35:25;21.60;49.20
11989;DHT22;6054;50.966;7.094;2023-04-29T00:37:51;21.60;49.30
11989;DHT22;6054;50.966;7.094;2023-04-29T00:40:18;21.60;49.10
11989;DHT22;6054;50.966;7.094;2023-04-29T00:42:45;21.60;49.00
11989;DHT22;6054;50.966;7.094;2023-04-29T00:45:12;21.60;48.80
11989;DHT22;6054;50.966;7.094;2023-04-29T00:47:39;21.60;48.50
11989;DHT22;6054;50.966;7.094;2023-04-29T00:50:07;21.60;47.90
11989;DHT22;6054;50.966;7.094;2023-04-29T00:52:36;21.60;48.30
11989;DHT22;6054;50.966;7.094;2023-04-29T00:55:05;21.50;48.20
11989;DHT22;6054;50.966;7.094;2023-04-29T00:57:34;21.50;48.40
11989;DHT22;6054;50.966;7.094;2023-04-29T01:00:01;21.50;48.10
11989;DHT22;6054;50.966;7.094;2023-04-29T01:02:28;21.40;48.20
11989;DHT22;6054;50.966;7.094;2023-04-29T01:04:55;21.40;48.00
11989;DHT22;6054;50.966;7.094;2023-04-29T01:07:27;21.40;48.00
11989;DHT22;6054;50.966;7.094;2023-04-29T01:10:02;21.40;48.10
11989;DHT22;6054;50.966;7.094;2023-04-29T01:12:32;21.40;48.20
11989;DHT22;6054;50.966;7.094;2023-04-29T01:15:03;21.40;48.20
11989;DHT22;6054;50.966;7.094;2023-04-29T01:17:36;21.40;48.00
11989;DHT22;6054;50.966;7.094;2023-04-29T01:20:04;21.40;48.00
11989;DHT22;6054;50.966;7.094;2023-04-29T01:22:32;21.40;48.00
11989;DHT22;6054;50.966;7.094;2023-04-29T01:25:00;21.40;47.90
11989;DHT22;6054;50.966;7.094;2023-04-29T01:27:29;21.40;47.60
11989;DHT22;6054;50.966;7.094;2023-04-29T01:30:01;21.40;48.00
11989;DHT22;6054;50.966;7.094;2023-04-29T01:32:40;21.40;47.90
11989;DHT22;6054;50.966;7.094;2023-04-29T01:35:14;21.30;48.10
11989;DHT22;6054;50.966;7.094;2023-04-29T01:37:51;21.30;48.20
11989;DHT22;6054;50.966;7.094;2023-04-29T01:40:25;21.30;48.10
11989;DHT22;6054;50.966;7.094;2023-04-29T01:43:00;21.30;48.20
11989;DHT22;6054;50.966;7.094;2023-04-29T01:45:28;21.20;48.30
11989;DHT22;6054;50.966;7.094;2023-04-29T01:47:57;21.20;48.40
11989;DHT22;6054;50.966;7.094;2023-04-29T01:50:24;21.20;48.40
11989;DHT22;6054;50.966;7.094;2023-04-29T01:52:51;21.20;48.30
11989;DHT22;6054;50.966;7.094;2023-04-29T01:55:18;21.10;48.20
11989;DHT22;6054;50.966;7.094;2023-04-29T01:57:47;21.10;48.50
11989;DHT22;6054;50.966;7.094;2023-04-29T02:00:14;21.10;48.30
11989;DHT22;6054;50.966;7.094;2023-04-29T02:02:41;21.00;48.30
11989;DHT22;6054;50.966;7.094;2023-04-29T02:05:08;21.00;48.30
11989;DHT22;6054;50.966;7.094;2023-04-29T02:07:35;20.90;48.40
11989;DHT22;6054;50.966;7.094;2023-04-29T02:10:02;21.10;48.50
11989;DHT22;6054;50.966;7.094;2023-04-29T02:12:29;20.80;48.40
11989;DHT22;6054;50.966;7.094;2023-04-29T02:14:57;21.00;48.50
11989;DHT22;6054;50.966;7.094;2023-04-29T02:17:24;20.70;48.20
11989;DHT22;6054;50.966;7.094;2023-04-29T02:19:51;20.70;48.40
11989;DHT22;6054;50.966;7.094;2023-04-29T02:22:19;20.70;48.50
11989;DHT22;6054;50.966;7.094;2023-04-29T02:24:46;20.80;48.70
11989;DHT22;6054;50.966;7.094;2023-04-29T02:27:13;20.70;48.90
11989;DHT22;6054;50.966;7.094;2023-04-29T02:29:40;20.70;49.60
11989;DHT22;6054;50.966;7.094;2023-04-29T02:32:08;20.60;49.00
11989;DHT22;6054;50.966;7.094;2023-04-29T02:34:35;20.60;49.10
11989;DHT22;6054;50.966;7.094;2023-04-29T02:37:01;20.60;49.40
11989;DHT22;6054;50.966;7.094;2023-04-29T02:39:29;20.50;49.50
11989;DHT22;6054;50.966;7.094;2023-04-29T02:41:56;20.50;49.40
11989;DHT22;6054;50.966;7.094;2023-04-29T02:44:23;20.50;49.90
11989;DHT22;6054;50.966;7.094;2023-04-29T02:46:50;20.50;49.70
11989;DHT22;6054;50.966;7.094;2023-04-29T02:49:18;20.40;49.90
11989;DHT22;6054;50.966;7.094;2023-04-29T02:51:45;20.40;49.90
11989;DHT22;6054;50.966;7.094;2023-04-29T02:54:14;20.40;50.30
11989;DHT22;6054;50.966;7.094;2023-04-29T02:56:41;20.40;50.40
11989;DHT22;6054;50.966;7.094;2023-04-29T02:59:08;20.60;50.50
11989;DHT22;6054;50.966;7.094;2023-04-29T03:01:35;20.40;50.70
11989;DHT22;6054;50.966;7.094;2023-04-29T03:04:03;20.60;50.60
11989;DHT22;6054;50.966;7.094;2023-04-29T03:06:32;20.40;50.70
11989;DHT22;6054;50.966;7.094;2023-04-29T03:08:59;20.30;50.50
11989;DHT22;6054;50.966;7.094;2023-04-29T03:11:26;20.30;50.60
11989;DHT22;6054;50.966;7.094;2023-04-29T03:13:53;20.30;50.70
11989;DHT22;6054;50.966;7.094;2023-04-29T03:16:19;20.30;51.00
11989;DHT22;6054;50.966;7.094;2023-04-29T03:18:46;20.20;50.80
11989;DHT22;6054;50.966;7.094;2023-04-29T03:21:14;20.30;51.10
11989;DHT22;6054;50.966;7.094;2023-04-29T03:23:42;20.30;51.30
11989;DHT22;6054;50.966;7.094;2023-04-29T03:26:09;20.10;51.20
11989;DHT22;6054;50.966;7.094;2023-04-29T03:28:36;20.10;51.00
11989;DHT22;6054;50.966;7.094;2023-04-29T03:31:02;20.10;51.40
11989;DHT22;6054;50.966;7.094;2023-04-29T03:33:29;20.00;51.50
11989;DHT22;6054;50.966;7.094;2023-04-29T03:35:56;20.00;51.70
11989;DHT22;6054;50.966;7.094;2023-04-29T03:38:23;20.20;51.90
11989;DHT22;6054;50.966;7.094;2023-04-29T03:40:51;19.90;52.00
11989;DHT22;6054;50.966;7.094;2023-04-29T03:43:18;19.90;51.80
11989;DHT22;6054;50.966;7.094;2023-04-29T03:45:45;19.90;51.90
11989;DHT22;6054;50.966;7.094;2023-04-29T03:48:11;19.80;51.70
11989;DHT22;6054;50.966;7.094;2023-04-29T03:50:38;19.80;52.00
11989;DHT22;6054;50.966;7.094;2023-04-29T03:53:05;19.70;52.00
11989;DHT22;6054;50.966;7.094;2023-04-29T03:55:32;19.70;52.10
11989;DHT22;6054;50.966;7.094;2023-04-29T03:58:00;19.60;52.00
11989;DHT22;6054;50.966;7.094;2023-04-29T04:00:28;19.50;52.10
11989;DHT22;6054;50.966;7.094;2023-04-29T04:02:55;19.50;52.90
11989;DHT22;6054;50.966;7.094;2023-04-29T04:05:22;19.40;51.70
11989;DHT22;6054;50.966;7.094;2023-04-29T04:07:49;19.40;51.90
11989;DHT22;6054;50.966;7.094;2023-04-29T04:10:16;19.40;51.70
11989;DHT22;6054;50.966;7.094;2023-04-29T04:12:43;19.60;52.00
11989;DHT22;6054;50.966;7.094;2023-04-29T04:15:11;19.30;51.90
11989;DHT22;6054;50.966;7.094;2023-04-29T04:17:38;19.30;51.90
11989;DHT22;6054;50.966;7.094;2023-04-29T04:20:06;19.30;51.90
11989;DHT22;6054;50.966;7.094;2023-04-29T04:22:33;19.30;52.20
11989;DHT22;6054;50.966;7.094;2023-04-29T04:25:00;19.30;51.90
11989;DHT22;6054;50.966;7.094;2023-04-29T04:27:26;19.20;51.70
11989;DHT22;6054;50.966;7.094;2023-04-29T04:29:53;19.20;52.00
11989;DHT22;6054;50.966;7.094;2023-04-29T04:32:22;19.20;52.00
11989;DHT22;6054;50.966;7.094;2023-04-29T04:34:49;19.20;52.10
11989;DHT22;6054;50.966;7.094;2023-04-29T04:37:15;19.10;51.80
11989;DHT22;6054;50.966;7.094;2023-04-29T04:39:43;19.10;52.10
11989;DHT22;6054;50.966;7.094;2023-04-29T04:42:09;19.20;52.30
11989;DHT22;6054;50.966;7.094;2023-04-29T04:44:36;19.20;52.20
11989;DHT22;6054;50.966;7.094;2023-04-29T04:47:03;19.20;52.10
11989;DHT22;6054;50.966;7.094;2023-04-29T04:49:32;19.20;52.00
11989;DHT22;6054;50.966;7.094;2023-04-29T04:51:58;19.20;51.90
11989;DHT22;6054;50.966;7.094;2023-04-29T04:54:25;19.20;52.00
11989;DHT22;6054;50.966;7.094;2023-04-29T04:56:52;19.20;51.90
11989;DHT22;6054;50.966;7.094;2023-04-29T04:59:19;19.20;51.80
11989;DHT22;6054;50.966;7.094;2023-04-29T05:01:45;19.20;51.90
11989;DHT22;6054;50.966;7.094;2023-04-29T05:04:12;19.10;52.00
11989;DHT22;6054;50.966;7.094;2023-04-29T05:06:41;19.20;52.10
11989;DHT22;6054;50.966;7.094;2023-04-29T05:09:08;19.10;51.40
11989;DHT22;6054;50.966;7.094;2023-04-29T05:11:35;19.10;51.90
11989;DHT22;6054;50.966;7.094;2023-04-29T05:14:02;19.10;51.80
11989;DHT22;6054;50.966;7.094;2023-04-29T05:16:29;19.00;51.80
11989;DHT22;6054;50.966;7.094;2023-04-29T05:18:56;19.00;51.80
11989;DHT22;6054;50.966;7.094;2023-04-29T05:21:22;19.00;52.00
11989;DHT22;6054;50.966;7.094;2023-04-29T05:23:51;19.00;52.10
11989;DHT22;6054;50.966;7.094;2023-04-29T05:26:17;19.00;51.90
11989;DHT22;6054;50.966;7.094;2023-04-29T05:28:44;19.00;52.10
11989;DHT22;6054;50.966;7.094;2023-04-29T05:31:11;18.90;51.80
11989;DHT22;6054;50.966;7.094;2023-04-29T05:33:37;19.00;52.10
11989;DHT22;6054;50.966;7.094;2023-04-29T05:36:05;19.00;52.00
11989;DHT22;6054;50.966;7.094;2023-04-29T05:38:32;19.00;52.30
11989;DHT22;6054;50.966;7.094;2023-04-29T05:41:00;19.00;52.00
11989;DHT22;6054;50.966;7.094;2023-04-29T05:43:28;19.00;52.10
11989;DHT22;6054;50.966;7.094;2023-04-29T05:45:54;19.00;52.20
11989;DHT22;6054;50.966;7.094;2023-04-29T05:48:21;19.00;52.10
11989;DHT22;6054;50.966;7.094;2023-04-29T05:50:49;18.90;52.00
11989;DHT22;6054;50.966;7.094;2023-04-29T05:53:16;18.90;51.80
11989;DHT22;6054;50.966;7.094;2023-04-29T05:55:42;18.90;52.00
11989;DHT22;6054;50.966;7.094;2023-04-29T05:58:12;18.90;52.20
11989;DHT22;6054;50.966;7.094;2023-04-29T06:00:39;19.00;52.00
11989;DHT22;6054;50.966;7.094;2023-04-29T06:03:06;19.00;52.00
11989;DHT22;6054;50.966;7.094;2023-04-29T06:05:33;18.90;51.80
11989;DHT22;6054;50.966;7.094;2023-04-29T06:07:59;18.90;51.90
11989;DHT22;6054;50.966;7.094;2023-04-29T06:10:26;18.90;51.60
11989;DHT22;6054;50.966;7.094;2023-04-29T06:12:53;19.10;51.90
11989;DHT22;6054;50.966;7.094;2023-04-29T06:15:21;18.90;51.80
11989;DHT22;6054;50.966;7.094;2023-04-29T06:17:48;18.90;51.90
11989;DHT22;6054;50.966;7.094;2023-04-29T06:20:15;18.90;52.00
11989;DHT22;6054;50.966;7.094;2023-04-29T06:22:41;18.90;52.00
11989;DHT22;6054;50.966;7.094;2023-04-29T06:25:08;18.90;51.90
11989;DHT22;6054;50.966;7.094;2023-04-29T06:27:35;19.00;52.00
11989;DHT22;6054;50.966;7.094;2023-04-29T06:30:02;18.90;52.00
11989;DHT22;6054;50.966;7.094;2023-04-29T06:32:30;19.00;52.20
11989;DHT22;6054;50.966;7.094;2023-04-29T06:34:57;19.00;51.80
11989;DHT22;6054;50.966;7.094;2023-04-29T06:37:24;19.00;51.90
11989;DHT22;6054;50.966;7.094;2023-04-29T06:39:52;19.00;51.60
11989;DHT22;6054;50.966;7.094;2023-04-29T06:42:18;19.00;51.80
11989;DHT22;6054;50.966;7.094;2023-04-29T06:44:45;19.00;52.00
11989;DHT22;6054;50.966;7.094;2023-04-29T06:47:12;19.00;51.80
11989;DHT22;6054;50.966;7.094;2023-04-29T06:49:41;19.00;51.70
11989;DHT22;6054;50.966;7.094;2023-04-29T06:52:08;19.10;51.90
11989;DHT22;6054;50.966;7.094;2023-04-29T06:54:35;19.00;51.80
11989;DHT22;6054;50.966;7.094;2023-04-29T06:57:01;19.00;51.50
11989;DHT22;6054;50.966;7.094;2023-04-29T06:59:28;19.10;51.50
11989;DHT22;6054;50.966;7.094;2023-04-29T07:01:55;19.10;51.70
11989;DHT22;6054;50.966;7.094;2023-04-29T07:04:22;19.10;51.40
11989;DHT22;6054;50.966;7.094;2023-04-29T07:06:50;19.00;51.10
11989;DHT22;6054;50.966;7.094;2023-04-29T07:09:18;19.00;51.20
11989;DHT22;6054;50.966;7.094;2023-04-29T07:11:45;19.00;51.00
11989;DHT22;6054;50.966;7.094;2023-04-29T07:14:11;19.40;51.20
11989;DHT22;6054;50.966;7.094;2023-04-29T07:16:38;19.00;51.00
11989;DHT22;6054;50.966;7.094;2023-04-29T07:19:05;19.10;51.20
11989;DHT22;6054;50.966;7.094;2023-04-29T07:21:32;19.00;50.80
11989;DHT22;6054;50.966;7.094;2023-04-29T07:24:00;19.10;51.30
11989;DHT22;6054;50.966;7.094;2023-04-29T07:26:29;19.10;51.20
11989;DHT22;6054;50.966;7.094;2023-04-29T07:28:56;19.10;51.20
11989;DHT22;6054;50.966;7.094;2023-04-29T07:31:23;19.10;51.00
11989;DHT22;6054;50.966;7.094;2023-04-29T07:33:49;19.20;51.30
11989;DHT22;6054;50.966;7.094;2023-04-29T07:36:17;19.20;51.00
11989;DHT22;6054;50.966;7.094;2023-04-29T07:38:44;19.20;50.70
11989;DHT22;6054;50.966;7.094;2023-04-29T07:41:12;19.20;50.80
11989;DHT22;6054;50.966;7.094;2023-04-29T07:43:39;19.20;51.00
11989;DHT22;6054;50.966;7.094;2023-04-29T07:46:06;19.20;51.10
11989;DHT22;6054;50.966;7.094;2023-04-29T07:48:36;19.20;51.10
11989;DHT22;6054;50.966;7.094;2023-04-29T07:51:03;19.40;51.80
11989;DHT22;6054;50.966;7.094;2023-04-29T07:53:30;19.20;51.20
11989;DHT22;6054;50.966;7.094;2023-04-29T07:55:57;19.20;51.10
11989;DHT22;6054;50.966;7.094;2023-04-29T07:58:27;19.20;51.10
11989;DHT22;6054;50.966;7.094;2023-04-29T08:00:53;19.20;50.80
11989;DHT22;6054;50.966;7.094;2023-04-29T08:03:20;19.20;50.90
11989;DHT22;6054;50.966;7.094;2023-04-29T08:05:47;19.20;50.80
11989;DHT22;6054;50.966;7.094;2023-04-29T08:08:15;19.20;50.90
11989;DHT22;6054;50.966;7.094;2023-04-29T08:10:42;19.20;50.40
11989;DHT22;6054;50.966;7.094;2023-04-29T08:13:09;19.50;51.20
11989;DHT22;6054;50.966;7.094;2023-04-29T08:15:37;19.20;50.80
11989;DHT22;6054;50.966;7.094;2023-04-29T08:18:04;19.20;51.00
11989;DHT22;6054;50.966;7.094;2023-04-29T08:20:30;19.30;51.00
11989;DHT22;6054;50.966;7.094;2023-04-29T08:22:57;19.30;50.80
11989;DHT22;6054;50.966;7.094;2023-04-29T08:25:25;19.60;51.10
11989;DHT22;6054;50.966;7.094;2023-04-29T08:27:53;19.30;51.10
11989;DHT22;6054;50.966;7.094;2023-04-29T08:30:20;19.40;51.00
11989;DHT22;6054;50.966;7.094;2023-04-29T08:32:48;19.40;50.40
11989;DHT22;6054;50.966;7.094;2023-04-29T08:35:15;19.40;50.50
11989;DHT22;6054;50.966;7.094;2023-04-29T08:37:42;19.40;50.50
11989;DHT22;6054;50.966;7.094;2023-04-29T08:40:09;19.40;50.10
11989;DHT22;6054;50.966;7.094;2023-04-29T08:42:36;19.50;50.60
11989;DHT22;6054;50.966;7.094;2023-04-29T08:45:04;19.50;50.00
11989;DHT22;6054;50.966;7.094;2023-04-29T08:47:31;19.60;49.80
11989;DHT22;6054;50.966;7.094;2023-04-29T08:50:02;19.60;50.10
11989;DHT22;6054;50.966;7.094;2023-04-29T08:52:30;19.60;49.80
11989;DHT22;6054;50.966;7.094;2023-04-29T08:54:57;19.60;49.60
11989;DHT22;6054;50.966;7.094;2023-04-29T08:57:25;19.70;49.80
11989;DHT22;6054;50.966;7.094;2023-04-29T08:59:53;19.70;49.40
11989;DHT22;6054;50.966;7.094;2023-04-29T09:02:19;19.70;48.60
11989;DHT22;6054;50.966;7.094;2023-04-29T09:04:52;19.70;48.90
11989;DHT22;6054;50.966;7.094;2023-04-29T09:07:21;19.60;48.90
11989;DHT22;6054;50.966;7.094;2023-04-29T09:09:48;19.60;48.90
11989;DHT22;6054;50.966;7.094;2023-04-29T09:12:16;19.70;49.00
11989;DHT22;6054;50.966;7.094;2023-04-29T09:14:43;19.60;48.50
11989;DHT22;6054;50.966;7.094;2023-04-29T09:17:10;19.60;47.90
11989;DHT22;6054;50.966;7.094;2023-04-29T09:19:37;19.60;48.10
11989;DHT22;6054;50.966;7.094;2023-04-29T09:22:04;19.60;48.20
11989;DHT22;6054;50.966;7.094;2023-04-29T09:24:34;19.60;48.30
11989;DHT22;6054;50.966;7.094;2023-04-29T09:27:02;19.60;48.20
11989;DHT22;6054;50.966;7.094;2023-04-29T09:29:29;19.60;48.60
11989;DHT22;6054;50.966;7.094;2023-04-29T09:31:57;19.40;48.00
11989;DHT22;6054;50.966;7.094;2023-04-29T09:34:31;19.60;48.20
11989;DHT22;6054;50.966;7.094;2023-04-29T09:37:00;19.90;49.00
11989;DHT22;6054;50.966;7.094;2023-04-29T09:39:26;19.60;48.30
11989;DHT22;6054;50.966;7.094;2023-04-29T09:42:04;19.60;48.80
11989;DHT22;6054;50.966;7.094;2023-04-29T09:44:33;19.80;48.30
11989;DHT22;6054;50.966;7.094;2023-04-29T09:47:02;19.60;48.50
11989;DHT22;6054;50.966;7.094;2023-04-29T09:49:30;19.60;48.80
11989;DHT22;6054;50.966;7.094;2023-04-29T09:52:01;19.60;49.00
11989;DHT22;6054;50.966;7.094;2023-04-29T09:54:30;19.60;48.80
11989;DHT22;6054;50.966;7.094;2023-04-29T09:56:58;19.80;48.70
11989;DHT22;6054;50.966;7.094;2023-04-29T09:59:27;19.60;48.40
11989;DHT22;6054;50.966;7.094;2023-04-29T10:01:55;19.60;48.60
11989;DHT22;6054;50.966;7.094;2023-04-29T10:04:23;19.80;48.90
11989;DHT22;6054;50.966;7.094;2023-04-29T10:06:53;19.60;48.60
11989;DHT22;6054;50.966;7.094;2023-04-29T10:09:20;19.50;48.70
11989;DHT22;6054;50.966;7.094;2023-04-29T10:11:51;19.70;49.10
11989;DHT22;6054;50.966;7.094;2023-04-29T10:14:19;19.60;48.90
11989;DHT22;6054;50.966;7.094;2023-04-29T10:16:49;19.60;48.80
11989;DHT22;6054;50.966;7.094;2023-04-29T10:19:25;19.60;48.90
11989;DHT22;6054;50.966;7.094;2023-04-29T10:21:54;19.80;48.90
11989;DHT22;6054;50.966;7.094;2023-04-29T10:24:24;19.60;48.50
11989;DHT22;6054;50.966;7.094;2023-04-29T10:26:52;19.60;48.80
11989;DHT22;6054;50.966;7.094;2023-04-29T10:29:21;19.70;48.80
11989;DHT22;6054;50.966;7.094;2023-04-29T10:31:50;19.60;49.10
11989;DHT22;6054;50.966;7.094;2023-04-29T10:34:17;19.60;49.20
11989;DHT22;6054;50.966;7.094;2023-04-29T10:36:46;19.60;49.10
11989;DHT22;6054;50.966;7.094;2023-04-29T10:39:23;19.80;49.40
11989;DHT22;6054;50.966;7.094;2023-04-29T10:41:53;19.60;49.60
11989;DHT22;6054;50.966;7.094;2023-04-29T10:44:19;19.70;48.80
11989;DHT22;6054;50.966;7.094;2023-04-29T10:46:47;19.60;48.70
11989;DHT22;6054;50.966;7.094;2023-04-29T10:49:15;19.50;48.60
11989;DHT22;6054;50.966;7.094;2023-04-29T10:51:43;19.60;48.70
11989;DHT22;6054;50.966;7.094;2023-04-29T10:54:13;19.60;49.50
11989;DHT22;6054;50.966;7.094;2023-04-29T10:56:42;19.60;49.40
11989;DHT22;6054;50.966;7.094;2023-04-29T10:59:10;19.60;49.40
11989;DHT22;6054;50.966;7.094;2023-04-29T11:01:44;19.60;49.60
11989;DHT22;6054;50.966;7.094;2023-04-29T11:04:11;19.60;49.70
11989;DHT22;6054;50.966;7.094;2023-04-29T11:06:40;19.50;48.80
11989;DHT22;6054;50.966;7.094;2023-04-29T11:09:10;19.50;49.60
11989;DHT22;6054;50.966;7.094;2023-04-29T11:11:58;19.70;49.90
11989;DHT22;6054;50.966;7.094;2023-04-29T11:14:31;19.50;49.80
11989;DHT22;6054;50.966;7.094;2023-04-29T11:16:59;19.50;50.10
11989;DHT22;6054;50.966;7.094;2023-04-29T11:19:31;19.60;50.10
11989;DHT22;6054;50.966;7.094;2023-04-29T11:22:12;19.50;50.00
11989;DHT22;6054;50.966;7.094;2023-04-29T11:24:50;19.60;50.20
11989;DHT22;6054;50.966;7.094;2023-04-29T11:27:17;19.60;50.30
11989;DHT22;6054;50.966;7.094;2023-04-29T11:29:45;19.60;50.10
11989;DHT22;6054;50.966;7.094;2023-04-29T11:32:12;19.60;49.40
11989;DHT22;6054;50.966;7.094;2023-04-29T11:34:39;19.60;49.50
11989;DHT22;6054;50.966;7.094;2023-04-29T11:37:06;19.60;49.30
11989;DHT22;6054;50.966;7.094;2023-04-29T11:39:34;19.60;49.50
11989;DHT22;6054;50.966;7.094;2023-04-29T11:42:05;19.90;50.00
11989;DHT22;6054;50.966;7.094;2023-04-29T11:44:35;19.70;49.80
11989;DHT22;6054;50.966;7.094;2023-04-29T11:47:02;19.70;49.00
11989;DHT22;6054;50.966;7.094;2023-04-29T11:49:30;19.60;49.60
11989;DHT22;6054;50.966;7.094;2023-04-29T11:51:58;19.70;49.80
11989;DHT22;6054;50.966;7.094;2023-04-29T11:54:25;19.70;49.40
11989;DHT22;6054;50.966;7.094;2023-04-29T11:56:54;19.70;48.80
11989;DHT22;6054;50.966;7.094;2023-04-29T11:59:21;19.70;49.00
11989;DHT22;6054;50.966;7.094;2023-04-29T12:01:49;19.70;49.30
11989;DHT22;6054;50.966;7.094;2023-04-29T12:04:16;19.80;49.20
11989;DHT22;6054;50.966;7.094;2023-04-29T12:06:43;19.80;50.00
11989;DHT22;6054;50.966;7.094;2023-04-29T12:09:11;19.80;49.10
11989;DHT22;6054;50.966;7.094;2023-04-29T12:11:39;19.90;50.00
11989;DHT22;6054;50.966;7.094;2023-04-29T12:14:08;19.90;49.10
11989;DHT22;6054;50.966;7.094;2023-04-29T12:16:35;19.90;49.00
11989;DHT22;6054;50.966;7.094;2023-04-29T12:19:02;20.00;49.50
11989;DHT22;6054;50.966;7.094;2023-04-29T12:21:29;19.90;48.50
11989;DHT22;6054;50.966;7.094;2023-04-29T12:23:58;19.90;48.60
11989;DHT22;6054;50.966;7.094;2023-04-29T12:26:27;19.90;49.10
11989;DHT22;6054;50.966;7.094;2023-04-29T12:28:55;20.10;49.30
11989;DHT22;6054;50.966;7.094;2023-04-29T12:31:31;20.00;49.80
11989;DHT22;6054;50.966;7.094;2023-04-29T12:34:02;20.00;49.60
11989;DHT22;6054;50.966;7.094;2023-04-29T12:36:30;20.10;49.50
11989;DHT22;6054;50.966;7.094;2023-04-29T12:38:58;20.00;49.40
11989;DHT22;6054;50.966;7.094;2023-04-29T12:41:38;20.00;49.50
11989;DHT22;6054;50.966;7.094;2023-04-29T12:44:05;20.10;50.00
11989;DHT22;6054;50.966;7.094;2023-04-29T12:46:38;20.10;48.70
11989;DHT22;6054;50.966;7.094;2023-04-29T12:49:06;20.20;49.70
11989;DHT22;6054;50.966;7.094;2023-04-29T12:51:34;20.30;49.60
11989;DHT22;6054;50.966;7.094;2023-04-29T12:54:01;20.20;49.50
11989;DHT22;6054;50.966;7.094;2023-04-29T12:56:29;20.30;49.60
11989;DHT22;6054;50.966;7.094;2023-04-29T12:59:02;20.60;49.70
11989;DHT22;6054;50.966;7.094;2023-04-29T13:01:30;20.40;49.80
11989;DHT22;6054;50.966;7.094;2023-04-29T13:04:11;20.70;49.10
11989;DHT22;6054;50.966;7.094;2023-04-29T13:06:38;20.60;48.80
11989;DHT22;6054;50.966;7.094;2023-04-29T13:09:06;20.70;48.30
11989;DHT22;6054;50.966;7.094;2023-04-29T13:11:36;20.80;47.60
11989;DHT22;6054;50.966;7.094;2023-04-29T13:14:07;21.00;48.40
11989;DHT22;6054;50.966;7.094;2023-04-29T13:16:34;21.10;48.90
11989;DHT22;6054;50.966;7.094;2023-04-29T13:19:01;21.10;46.20
11989;DHT22;6054;50.966;7.094;2023-04-29T13:21:29;21.20;47.20
11989;DHT22;6054;50.966;7.094;2023-04-29T13:23:57;21.20;46.20
11989;DHT22;6054;50.966;7.094;2023-04-29T13:26:25;21.30;47.00
11989;DHT22;6054;50.966;7.094;2023-04-29T13:28:51;21.40;46.50
11989;DHT22;6054;50.966;7.094;2023-04-29T13:31:18;21.40;46.30
11989;DHT22;6054;50.966;7.094;2023-04-29T13:33:45;21.50;46.30
11989;DHT22;6054;50.966;7.094;2023-04-29T13:36:13;21.70;47.40
11989;DHT22;6054;50.966;7.094;2023-04-29T13:38:41;21.60;47.50
11989;DHT22;6054;50.966;7.094;2023-04-29T13:41:08;21.90;45.80
11989;DHT22;6054;50.966;7.094;2023-04-29T13:43:35;21.70;46.10
11989;DHT22;6054;50.966;7.094;2023-04-29T13:46:01;21.70;45.80
11989;DHT22;6054;50.966;7.094;2023-04-29T13:48:28;21.90;46.20
11989;DHT22;6054;50.966;7.094;2023-04-29T13:50:55;21.90;46.20
11989;DHT22;6054;50.966;7.094;2023-04-29T13:53:22;22.00;46.00
11989;DHT22;6054;50.966;7.094;2023-04-29T13:55:50;22.00;45.80
11989;DHT22;6054;50.966;7.094;2023-04-29T13:58:17;22.00;45.30
11989;DHT22;6054;50.966;7.094;2023-04-29T14:00:44;22.00;45.10
11989;DHT22;6054;50.966;7.094;2023-04-29T14:03:11;22.10;44.80
11989;DHT22;6054;50.966;7.094;2023-04-29T14:05:37;22.20;43.80
11989;DHT22;6054;50.966;7.094;2023-04-29T14:08:04;22.10;44.20
11989;DHT22;6054;50.966;7.094;2023-04-29T14:10:31;22.10;44.30
11989;DHT22;6054;50.966;7.094;2023-04-29T14:12:59;22.00;44.40
11989;DHT22;6054;50.966;7.094;2023-04-29T14:15:27;21.90;43.90
11989;DHT22;6054;50.966;7.094;2023-04-29T14:17:54;21.90;44.60
11989;DHT22;6054;50.966;7.094;2023-04-29T14:20:21;22.00;44.30
11989;DHT22;6054;50.966;7.094;2023-04-29T14:22:48;22.10;44.10
11989;DHT22;6054;50.966;7.094;2023-04-29T14:25:15;21.90;44.20
11989;DHT22;6054;50.966;7.094;2023-04-29T14:27:42;22.00;44.60
11989;DHT22;6054;50.966;7.094;2023-04-29T14:30:11;21.80;43.90
11989;DHT22;6054;50.966;7.094;2023-04-29T14:32:38;21.80;44.50
11989;DHT22;6054;50.966;7.094;2023-04-29T14:35:05;21.70;44.20
11989;DHT22;6054;50.966;7.094;2023-04-29T14:37:32;21.70;45.00
11989;DHT22;6054;50.966;7.094;2023-04-29T14:39:59;21.70;43.70
11989;DHT22;6054;50.966;7.094;2023-04-29T14:42:26;21.90;44.30
11989;DHT22;6054;50.966;7.094;2023-04-29T14:44:53;21.60;43.70
11989;DHT22;6054;50.966;7.094;2023-04-29T14:47:21;21.70;42.90
11989;DHT22;6054;50.966;7.094;2023-04-29T14:49:48;21.70;43.60
11989;DHT22;6054;50.966;7.094;2023-04-29T14:52:15;21.70;44.30
11989;DHT22;6054;50.966;7.094;2023-04-29T14:54:42;21.80;44.50
11989;DHT22;6054;50.966;7.094;2023-04-29T14:57:09;21.70;44.50
11989;DHT22;6054;50.966;7.094;2023-04-29T14:59:36;21.80;44.30
11989;DHT22;6054;50.966;7.094;2023-04-29T15:02:03;21.70;43.90
11989;DHT22;6054;50.966;7.094;2023-04-29T15:04:31;21.90;43.50
11989;DHT22;6054;50.966;7.094;2023-04-29T15:06:58;21.90;43.20
11989;DHT22;6054;50.966;7.094;2023-04-29T15:09:25;21.60;44.00
11989;DHT22;6054;50.966;7.094;2023-04-29T15:11:52;21.80;44.20
11989;DHT22;6054;50.966;7.094;2023-04-29T15:14:19;21.70;43.60
11989;DHT22;6054;50.966;7.094;2023-04-29T15:16:45;22.00;43.50
11989;DHT22;6054;50.966;7.094;2023-04-29T15:19:13;21.80;43.30
11989;DHT22;6054;50.966;7.094;2023-04-29T15:21:41;22.00;43.70
11989;DHT22;6054;50.966;7.094;2023-04-29T15:24:08;21.80;43.60
11989;DHT22;6054;50.966;7.094;2023-04-29T15:26:35;22.00;43.40
11989;DHT22;6054;50.966;7.094;2023-04-29T15:29:02;22.00;43.20
11989;DHT22;6054;50.966;7.094;2023-04-29T15:31:30;21.90;43.20
11989;DHT22;6054;50.966;7.094;2023-04-29T15:33:57;21.90;43.30
11989;DHT22;6054;50.966;7.094;2023-04-29T15:36:27;22.00;42.90
11989;DHT22;6054;50.966;7.094;2023-04-29T15:38:56;22.00;43.70
11989;DHT22;6054;50.966;7.094;2023-04-29T15:41:23;22.00;43.10
11989;DHT22;6054;50.966;7.094;2023-04-29T15:43:51;22.20;43.40
11989;DHT22;6054;50.966;7.094;2023-04-29T15:46:18;22.00;41.80
11989;DHT22;6054;50.966;7.094;2023-04-29T15:48:45;22.30;42.40